| Date | Time | Temp. (oF) | Dew Point (oF) | Rel. Hum. (%) | Press. (in.) | Wind Dir. | Wind Speed (mph) | Hourly Rainfall (in.) |
|
|---|---|---|---|---|---|---|---|---|---|
| 1 | 03/19 | 00:00 | 33 | 27 | 80 | 30.12 | E | 0 | 0.00 |
| 2 | 03/18 | 23:00 | 36 | 28 | 75 | 30.10 | SSE | 2 | 0.00 |
| 3 | 03/18 | 22:00 | 39 | 29 | 69 | 30.10 | SSE | 0 | 0.00 |
| 4 | 03/18 | 21:00 | 41 | 28 | 62 | 30.08 | ESE | 1 | 0.00 |
| 5 | 03/18 | 20:00 | 45 | 29 | 55 | 30.06 | N | 2 | 0.00 |
| 6 | 03/18 | 19:00 | 48 | 30 | 50 | 30.03 | NNW | 3 | 0.00 |
| 7 | 03/18 | 18:00 | 50 | 29 | 46 | 30.01 | NNW | 7 | 0.00 |
| 8 | 03/18 | 17:00 | 52 | 31 | 45 | 29.99 | WNW | 7 | 0.00 |
| 9 | 03/18 | 16:00 | 52 | 31 | 46 | 29.98 | NW | 6 | 0.00 |
| 10 | 03/18 | 15:00 | 52 | 33 | 50 | 29.98 | NW | 6 | 0.00 |
| 11 | 03/18 | 14:00 | 52 | 33 | 49 | 29.99 | W | 11 | 0.00 |
| 12 | 03/18 | 13:00 | 50 | 33 | 53 | 30.01 | WNW | 4 | 0.00 |
| 13 | 03/18 | 12:00 | 47 | 32 | 56 | 30.02 | NW | 1 | 0.00 |
| 14 | 03/18 | 11:00 | 45 | 31 | 60 | 30.04 | W | 4 | 0.00 |
| 15 | 03/18 | 10:00 | 42 | 30 | 63 | 30.06 | NE | 5 | 0.00 |
| 16 | 03/18 | 09:00 | 38 | 33 | 84 | 30.06 | SSE | 2 | 0.00 |
| 17 | 03/18 | 08:00 | 29 | 27 | 95 | 30.05 | SE | 3 | 0.00 |
| 18 | 03/18 | 07:00 | 24 | 22 | 93 | 30.04 | ENE | 1 | 0.00 |
| 19 | 03/18 | 06:00 | 24 | 22 | 92 | 30.03 | ENE | 1 | 0.00 |
| 20 | 03/18 | 05:00 | 25 | 22 | 90 | 30.02 | NE | 2 | 0.00 |
| 21 | 03/18 | 04:00 | 26 | 22 | 87 | 30.01 | NE | 1 | 0.00 |
| 22 | 03/18 | 03:00 | 27 | 22 | 84 | 29.99 | NNW | 0 | 0.00 |
| 23 | 03/18 | 02:00 | 27 | 22 | 83 | 30.00 | NNW | 3 | 0.00 |
| 24 | 03/18 | 01:00 | 30 | 22 | 74 | 30.00 | WSW | 0 | 0.00 |